CheckWX is a tool to help pilots better visualize weather data.  It is not intended as a substitute for an official pre-flight weather briefing.

01:27:28 UTC

KPMU METAR
Panola County Airport
Batesville, Mississippi, USA
Current

12 mins ago

KPMU 190115Z AUTO 00000KT 26/24 A2982 RMK AO2
Observed
Jun-19 @ 01:15 UTC
Visibility
Temperature
26°C / 79°F
Dewpoint
24°C / 75°F
Humidity
89%
Altimeter
29.82" Hg
Pressure
1009.82 hPa
Previous

32 mins ago

KPMU 190055Z AUTO 00000KT CLR 26/24 A2983 RMK AO2
Observed
Jun-19 @ 00:55 UTC
Visibility
Cloud Levels
  • Clear skies
Temperature
26°C / 79°F
Dewpoint
24°C / 75°F
Humidity
89%
Altimeter
29.83" Hg
Pressure
1010.12 hPa
Previous

52 mins ago

KPMU 190035Z AUTO 00000KT CLR 27/23 A2982 RMK AO2
Observed
Jun-19 @ 00:35 UTC
Visibility
Cloud Levels
  • Clear skies
Temperature
27°C / 81°F
Dewpoint
23°C / 73°F
Heat Index
30°C / 86°F
Humidity
79%
Altimeter
29.82" Hg
Pressure
1009.82 hPa